Time;durP1;ratioP1;P1;durP2;ratioP2;P2;SDS_P1;SDS_P2;PMS_P1;PMS_P2;Temp;Humidity;BMP_temperature;BMP_pressure;BME280_temperature;BME280_humidity;BME280_pressure;Samples;Min_cycle;Max_cycle;Signal;HPM_P1;HPM_P2
2022/09/23 00:01:28;;;;;;;3.20;2.42;;;;;;;10.77;61.05;99052.41;5134005;27;20066;-93
2022/09/23 00:03:55;;;;;;;3.70;2.50;;;;;;;10.72;61.14;99041.00;5135818;27;20047;-93
2022/09/23 00:06:23;;;;;;;3.55;2.53;;;;;;;10.90;60.71;99064.50;5134271;27;20415;-96
2022/09/23 00:08:50;;;;;;;3.60;2.50;;;;;;;10.87;61.35;99067.25;5138975;27;20023;-92
2022/09/23 00:11:20;;;;;;;4.18;2.88;;;;;;;10.73;61.59;99056.03;5130710;27;20040;-93
2022/09/23 00:13:47;;;;;;;4.57;2.60;;;;;;;10.75;61.87;99069.31;5136024;27;20048;-94
2022/09/23 00:16:15;;;;;;;3.92;2.83;;;;;;;10.61;62.22;99059.00;5138061;27;20054;-92
2022/09/23 00:18:42;;;;;;;3.35;2.38;;;;;;;10.47;62.35;99046.88;5129210;27;20044;-93
2022/09/23 00:21:11;;;;;;;4.05;2.72;;;;;;;10.59;62.07;99055.50;5134610;27;20035;-93
2022/09/23 00:23:40;;;;;;;3.30;2.60;;;;;;;10.89;61.45;99092.03;5130051;27;20039;-93
2022/09/23 00:26:11;;;;;;;3.45;2.50;;;;;;;10.67;61.38;99049.09;5138378;27;20107;-94
2022/09/23 00:28:37;;;;;;;4.00;2.80;;;;;;;10.81;61.14;99063.84;5133965;27;20472;-94
2022/09/23 00:31:05;;;;;;;3.63;2.80;;;;;;;10.80;61.55;99078.03;5132146;27;20039;-93
2022/09/23 00:33:31;;;;;;;3.85;2.50;;;;;;;10.56;61.79;99045.81;5126991;27;20039;-93
2022/09/23 00:35:58;;;;;;;4.35;2.72;;;;;;;10.43;62.14;99041.66;5123364;27;20067;-94
2022/09/23 00:38:24;;;;;;;4.32;2.72;;;;;;;10.42;62.16;99034.59;5141020;27;20077;-93
2022/09/23 00:40:51;;;;;;;5.30;2.70;;;;;;;10.48;61.87;99042.44;5144655;27;20119;-93
2022/09/23 00:43:17;;;;;;;4.32;2.72;;;;;;;10.54;61.85;99052.03;5134387;27;20039;-93
2022/09/23 00:45:47;;;;;;;4.70;2.55;;;;;;;10.51;61.64;99045.03;5132634;27;20035;-94
2022/09/23 00:48:16;;;;;;;4.10;2.55;;;;;;;10.62;61.35;99042.97;5123648;28;20065;-94
2022/09/23 00:50:45;;;;;;;4.93;2.53;;;;;;;10.93;60.74;99068.00;5124212;27;20114;-95
2022/09/23 00:53:15;;;;;;;3.53;2.38;;;;;;;10.77;60.54;99044.41;5131416;27;20047;-94
2022/09/23 00:55:45;;;;;;;2.55;2.03;;;;;;;10.86;60.18;99032.69;5129357;27;20035;-93
2022/09/23 00:58:16;;;;;;;3.85;2.40;;;;;;;11.00;59.66;99048.34;5124687;27;20044;-93
2022/09/23 01:00:44;;;;;;;2.92;2.28;;;;;;;11.07;59.36;99050.78;5126414;27;20063;-95
2022/09/23 01:03:10;;;;;;;4.20;2.40;;;;;;;11.07;59.63;99049.94;5141293;27;20126;-92
2022/09/23 01:05:38;;;;;;;4.10;2.70;;;;;;;11.13;59.18;99047.13;5138124;27;20043;-92
2022/09/23 01:08:06;;;;;;;4.78;2.70;;;;;;;11.18;59.58;99062.97;5138872;27;20122;-94
2022/09/23 01:10:48;;;;;;;5.25;3.17;;;;;;;10.90;59.98;99032.56;5142990;27;20047;-94
2022/09/23 01:13:24;;;;;;;3.65;2.40;;;;;;;10.80;60.29;99036.38;5134681;27;20571;-93
2022/09/23 01:15:59;;;;;;;5.15;2.50;;;;;;;10.82;59.82;99026.59;5140157;27;20108;-92
2022/09/23 01:18:33;;;;;;;4.95;2.50;;;;;;;10.80;60.28;99033.72;5124959;27;20074;-93
2022/09/23 01:21:13;;;;;;;5.05;2.63;;;;;;;10.89;60.24;99038.81;5123346;27;20040;-91
2022/09/23 01:24:13;;;;;;;4.13;2.60;;;;;;;11.18;59.93;99076.28;5126087;27;20043;-94
2022/09/23 01:27:15;;;;;;;3.65;2.60;;;;;;;11.17;59.24;99059.44;5120631;28;20035;-94
2022/09/23 01:30:03;;;;;;;3.97;2.40;;;;;;;10.90;60.00;99035.22;5120359;28;20048;-93
2022/09/23 01:32:47;;;;;;;3.93;2.50;;;;;;;10.95;59.36;99034.25;5136714;27;20043;-95
2022/09/23 01:35:25;;;;;;;4.22;2.60;;;;;;;11.03;59.42;99045.59;5135838;27;20055;-95
2022/09/23 01:37:58;;;;;;;3.17;2.40;;;;;;;11.20;59.14;99054.03;5131673;27;20107;-94
2022/09/23 01:40:34;;;;;;;3.80;2.10;;;;;;;11.22;58.93;99051.34;5138043;27;20043;-93
2022/09/23 01:43:06;;;;;;;2.78;2.10;;;;;;;11.21;58.75;99053.13;5117900;28;20122;-95
2022/09/23 01:45:35;;;;;;;3.45;2.25;;;;;;;11.39;58.09;99057.09;5134396;27;20036;-93
2022/09/23 01:48:12;;;;;;;3.83;2.35;;;;;;;11.34;58.24;99058.13;5129854;27;20097;-94
2022/09/23 01:53:51;;;;;;;3.50;2.30;;;;;;;11.40;58.93;99079.28;5115270;27;20369;-94
2022/09/23 01:56:22;;;;;;;6.03;2.50;;;;;;;11.00;61.03;99066.97;5113167;28;20036;-94
2022/09/23 01:58:52;;;;;;;6.30;2.53;;;;;;;10.62;62.12;99053.63;5112563;28;20048;-93
2022/09/23 02:01:22;;;;;;;4.25;2.38;;;;;;;10.35;63.87;99065.75;5112844;28;20067;-94
2022/09/23 02:03:54;;;;;;;3.63;2.70;;;;;;;10.07;64.67;99058.31;5112962;28;20400;-94
2022/09/23 02:06:24;;;;;;;4.90;2.63;;;;;;;9.93;65.57;99071.03;5113357;28;20054;-95
2022/09/23 02:08:57;;;;;;;3.95;2.60;;;;;;;9.66;66.70;99065.31;5113777;28;20401;-94
2022/09/23 02:11:23;;;;;;;5.05;3.03;;;;;;;9.63;67.51;99083.97;5112631;28;20097;-93
2022/09/23 02:13:53;;;;;;;3.97;2.60;;;;;;;9.49;67.48;99064.75;5114593;28;20046;-92
2022/09/23 02:16:25;;;;;;;4.00;2.63;;;;;;;9.37;67.86;99052.59;5113482;28;20050;-93
2022/09/23 02:18:56;;;;;;;4.22;2.80;;;;;;;9.58;67.75;99074.31;5113840;28;20129;-93
2022/09/23 02:21:26;;;;;;;4.95;2.90;;;;;;;9.58;68.28;99080.50;5114502;28;20035;-93
2022/09/23 02:24:00;;;;;;;6.03;2.97;;;;;;;9.50;67.88;99065.63;5115688;27;20040;-93
2022/09/23 02:26:32;;;;;;;5.57;2.78;;;;;;;9.68;65.71;99032.56;5114767;28;20039;-93
2022/09/23 02:29:08;;;;;;;4.10;2.78;;;;;;;10.17;64.13;99036.88;5113611;28;20657;-92
2022/09/23 02:31:40;;;;;;;5.07;2.50;;;;;;;10.48;63.49;99055.72;5114791;28;20105;-91
2022/09/23 02:34:18;;;;;;;3.30;2.50;;;;;;;10.54;62.60;99054.69;5128136;28;20092;-92
2022/09/23 02:36:52;;;;;;;3.85;2.67;;;;;;;10.44;62.57;99028.31;5115811;28;20131;-93
2022/09/23 02:39:24;;;;;;;4.18;2.70;;;;;;;10.63;62.63;99052.72;5114379;28;20131;-94
2022/09/23 02:41:59;;;;;;;3.75;2.60;;;;;;;10.50;62.62;99037.97;5115526;28;20044;-94
2022/09/23 02:44:27;;;;;;;3.85;2.97;;;;;;;10.57;62.54;99041.34;5116046;28;20036;-93
2022/09/23 02:46:53;;;;;;;3.65;2.53;;;;;;;10.66;62.07;99033.16;5115926;28;20039;-94
2022/09/23 02:49:22;;;;;;;4.05;2.58;;;;;;;10.74;62.34;99057.81;5112718;28;20048;-95
2022/09/23 02:51:48;;;;;;;4.18;2.50;;;;;;;10.85;61.58;99054.91;5114837;28;20093;-92
2022/09/23 02:54:17;;;;;;;4.28;2.40;;;;;;;10.84;60.86;99031.84;5114890;28;20065;-94
2022/09/23 02:56:47;;;;;;;5.72;2.78;;;;;;;10.64;61.70;99022.56;5113972;28;20040;-95
2022/09/23 02:59:13;;;;;;;4.60;2.45;;;;;;;10.67;61.64;99043.78;5113838;28;20439;-93
2022/09/23 03:01:51;;;;;;;3.92;2.50;;;;;;;10.58;62.60;99054.63;5114445;28;20040;-92
2022/09/23 03:04:24;;;;;;;5.03;2.90;;;;;;;10.36;63.60;99021.44;5102999;28;20397;-90
2022/09/23 03:06:59;;;;;;;4.25;2.60;;;;;;;10.52;62.33;99041.47;5099361;28;20059;-91
2022/09/23 03:09:30;;;;;;;3.85;2.70;;;;;;;10.39;63.18;99022.25;5099642;28;20090;-93
2022/09/23 03:12:14;;;;;;;5.25;2.80;;;;;;;10.34;64.84;99064.00;5099123;28;20051;-93
2022/09/23 03:14:48;;;;;;;3.75;2.70;;;;;;;9.99;65.55;99025.72;5095652;28;20420;-92
2022/09/23 03:17:21;;;;;;;5.10;3.03;;;;;;;10.07;65.18;99042.38;5098668;28;20044;-92
2022/09/23 03:19:54;;;;;;;4.53;2.97;;;;;;;9.89;66.72;99050.75;5099512;28;20086;-93
2022/09/23 03:22:24;;;;;;;4.43;2.78;;;;;;;10.06;64.70;99043.31;5103707;28;20093;-92
2022/09/23 03:24:54;;;;;;;3.80;2.55;;;;;;;10.66;62.15;99035.81;5099595;28;20498;-94
2022/09/23 03:27:26;;;;;;;5.75;3.28;;;;;;;10.90;61.04;99035.22;5098824;28;20050;-94
2022/09/23 03:29:54;;;;;;;4.90;2.65;;;;;;;10.96;60.90;99028.03;5094215;28;20048;-95
2022/09/23 03:32:23;;;;;;;3.85;2.70;;;;;;;10.87;60.81;99005.19;5104991;28;20072;-92
2022/09/23 03:34:53;;;;;;;3.92;2.80;;;;;;;10.98;60.44;99010.25;5100712;28;20549;-92
2022/09/23 03:37:22;;;;;;;;;;;;;;;11.12;60.58;99040.03;5101534;28;20047;-92
2022/09/23 03:39:50;;;;;;;;;;;;;;;11.05;60.81;99038.44;5098862;28;19916;-93
2022/09/23 03:42:21;;;;;;;4.85;2.97;;;;;;;10.71;61.43;99004.66;5095810;28;19955;-93
2022/09/23 03:44:53;;;;;;;5.07;2.90;;;;;;;10.78;62.17;99046.19;5078489;28;20520;-93
2022/09/23 03:47:19;;;;;;;4.85;2.80;;;;;;;10.54;62.72;99015.72;5079965;28;20041;-93
2022/09/23 03:49:47;;;;;;;4.47;3.03;;;;;;;10.31;63.79;99021.53;5079637;28;20559;-93
2022/09/23 03:52:14;;;;;;;4.75;3.17;;;;;;;10.27;65.11;99052.59;5079396;28;20098;-93
2022/09/23 03:54:40;;;;;;;5.50;3.20;;;;;;;9.99;65.72;99043.44;5079313;28;20044;-94
2022/09/23 03:57:06;;;;;;;5.65;3.28;;;;;;;9.93;66.29;99060.41;5081512;28;20070;-93
2022/09/23 03:59:32;;;;;;;5.03;3.30;;;;;;;9.73;66.53;99028.88;5079468;28;20502;-91
2022/09/23 04:02:00;;;;;;;5.40;3.10;;;;;;;9.74;66.49;99024.47;5071773;28;20037;-93
2022/09/23 04:04:26;;;;;;;4.22;3.17;;;;;;;9.89;65.56;99026.84;5087016;28;20032;-93
2022/09/23 04:06:53;;;;;;;5.28;3.17;;;;;;;9.99;66.08;99054.06;5076674;28;20043;-92
2022/09/23 04:09:19;;;;;;;5.97;3.42;;;;;;;9.93;65.77;99031.19;5077129;28;20543;-93
2022/09/23 04:11:45;;;;;;;5.57;3.20;;;;;;;10.05;65.22;99038.00;5084659;28;20131;-94
2022/09/23 04:14:11;;;;;;;5.15;3.10;;;;;;;9.90;65.27;99006.44;5078963;28;20041;-93
2022/09/23 04:16:36;;;;;;;4.97;3.33;;;;;;;9.83;65.77;99011.00;5076370;28;20048;-92
2022/09/23 04:19:04;;;;;;;4.45;3.22;;;;;;;9.77;65.80;99017.31;5081240;28;20037;-95
2022/09/23 04:21:30;;;;;;;5.97;3.63;;;;;;;9.89;66.08;99037.44;5079776;28;20036;-93
2022/09/23 04:23:56;;;;;;;7.63;3.50;;;;;;;9.71;66.67;99009.47;5074247;28;20119;-93
2022/09/23 04:26:21;;;;;;;5.97;3.20;;;;;;;9.81;66.41;99028.75;5076123;28;20071;-93
2022/09/23 04:28:47;;;;;;;5.45;3.60;;;;;;;9.76;66.70;99033.25;5079393;28;20044;-93
2022/09/23 04:31:13;;;;;;;4.72;3.17;;;;;;;9.77;67.38;99050.97;5077425;28;20925;-93
2022/09/23 04:33:39;;;;;;;4.65;3.40;;;;;;;9.70;67.69;99063.50;5076241;28;20046;-93
2022/09/23 04:36:07;;;;;;;4.78;3.17;;;;;;;9.63;68.80;99061.88;5075796;28;20043;-93
2022/09/23 04:38:33;;;;;;;6.68;3.58;;;;;;;9.46;68.94;99038.28;5074947;28;20044;-93
2022/09/23 04:40:59;;;;;;;6.38;3.30;;;;;;;9.22;70.10;99035.16;5074451;28;20082;-94
2022/09/23 04:43:25;;;;;;;5.28;3.95;;;;;;;9.38;69.42;99062.28;5076994;28;20036;-93
2022/09/23 04:45:58;;;;;;;4.57;3.30;;;;;;;9.37;68.92;99047.28;5078279;28;20086;-95
2022/09/23 04:48:24;;;;;;;5.43;3.13;;;;;;;9.36;68.95;99049.94;5077286;28;20127;-94
2022/09/23 04:50:50;;;;;;;4.43;3.10;;;;;;;9.14;69.55;99028.22;5076457;28;20076;-93
2022/09/23 04:53:17;;;;;;;6.50;3.53;;;;;;;9.23;70.32;99057.25;5075245;28;20460;-92
2022/09/23 04:55:44;;;;;;;5.13;3.53;;;;;;;9.31;70.60;99081.88;5075986;28;20106;-93
2022/09/23 04:58:10;;;;;;;7.50;3.63;;;;;;;9.22;70.26;99059.03;5075524;28;20040;-92
2022/09/23 05:00:36;;;;;;;6.15;3.40;;;;;;;9.21;69.83;99065.22;5074982;28;20563;-94
2022/09/23 05:03:02;;;;;;;5.60;3.58;;;;;;;9.22;70.68;99072.28;5075348;28;20043;-92
2022/09/23 05:05:29;;;;;;;7.15;4.25;;;;;;;9.17;71.30;99073.25;5076552;28;20045;-93
2022/09/23 05:07:55;;;;;;;7.68;4.22;;;;;;;8.94;71.93;99049.78;5076948;28;20047;-93
2022/09/23 05:10:23;;;;;;;7.75;4.47;;;;;;;9.01;72.37;99067.34;5077773;28;20091;-93
2022/09/23 05:12:49;;;;;;;7.38;5.00;;;;;;;8.88;73.11;99061.34;5077226;28;20040;-93
2022/09/23 05:15:15;;;;;;;8.00;4.40;;;;;;;8.86;73.05;99075.53;5075378;28;20055;-93
2022/09/23 05:17:41;;;;;;;7.57;4.50;;;;;;;8.57;73.82;99047.69;5075899;28;20123;-93
2022/09/23 05:20:08;;;;;;;20.48;6.00;;;;;;;8.53;74.84;99065.41;5074462;28;20058;-93
2022/09/23 05:22:34;;;;;;;15.77;5.47;;;;;;;8.50;75.41;99067.22;5075111;28;20436;-93
2022/09/23 05:25:01;;;;;;;8.63;4.82;;;;;;;8.59;75.31;99089.19;5074166;28;20044;-92
2022/09/23 05:27:28;;;;;;;8.57;4.85;;;;;;;8.44;75.84;99062.88;5074253;28;20041;-90
2022/09/23 05:29:54;;;;;;;8.50;5.10;;;;;;;8.42;76.21;99068.19;5074235;28;20119;-92
2022/09/23 05:32:20;;;;;;;7.53;4.53;;;;;;;8.54;76.14;99093.66;5074057;28;20123;-91
2022/09/23 05:34:46;;;;;;;16.85;11.95;;;;;;;8.55;76.19;99097.19;5073714;28;20398;-93
2022/09/23 05:37:12;;;;;;;9.20;6.05;;;;;;;8.33;76.40;99067.44;5073216;28;20037;-93
2022/09/23 05:39:38;;;;;;;11.88;5.38;;;;;;;8.32;77.42;99082.41;5073354;28;20046;-90
2022/09/23 05:42:04;;;;;;;9.15;4.97;;;;;;;8.38;77.34;99097.38;5075656;28;20047;-92
2022/09/23 05:44:32;;;;;;;8.30;4.97;;;;;;;8.38;77.63;99081.47;5075722;28;20074;-94
2022/09/23 05:46:58;;;;;;;8.43;5.07;;;;;;;8.32;77.61;99074.47;5074484;28;20485;-94
2022/09/23 05:49:23;;;;;;;10.63;5.20;;;;;;;8.27;78.13;99071.03;5073230;28;20044;-95
2022/09/23 05:51:49;;;;;;;10.35;4.93;;;;;;;8.38;78.09;99079.69;5076046;28;20064;-92
2022/09/23 05:54:15;;;;;;;10.40;5.18;;;;;;;8.46;78.39;99086.69;5076415;28;20040;-93
2022/09/23 05:56:41;;;;;;;11.10;5.35;;;;;;;8.46;78.27;99070.78;5074725;28;20065;-92
2022/09/23 05:59:07;;;;;;;13.40;5.85;;;;;;;8.35;78.88;99053.25;5074296;28;20040;-93
2022/09/23 06:01:35;;;;;;;8.75;5.50;;;;;;;8.59;78.75;99085.66;5074448;28;20508;-93
2022/09/23 06:04:03;;;;;;;12.43;6.25;;;;;;;8.79;78.21;99099.50;5074785;28;20594;-93
2022/09/23 06:06:30;;;;;;;8.02;5.20;;;;;;;8.75;78.56;99071.25;5074729;28;20052;-94
2022/09/23 06:08:58;;;;;;;11.90;5.88;;;;;;;9.18;77.61;99106.88;5074193;28;20044;-95
2022/09/23 06:11:24;;;;;;;10.80;5.03;;;;;;;9.13;77.52;99077.75;5075075;28;20045;-95
2022/09/23 06:13:53;;;;;;;12.32;5.55;;;;;;;9.30;78.08;99073.94;5073171;28;20044;-94
2022/09/23 06:16:19;;;;;;;12.60;6.35;;;;;;;9.52;75.93;99085.94;5074118;28;20048;-93
2022/09/23 06:18:46;;;;;;;14.57;6.30;;;;;;;9.77;74.70;99099.63;5074655;28;20051;-92
2022/09/23 06:21:14;;;;;;;9.77;6.13;;;;;;;9.92;74.24;99106.44;5074038;28;20045;-93
2022/09/23 06:23:40;;;;;;;13.38;6.78;;;;;;;9.90;73.30;99075.50;5075071;28;20070;-94
2022/09/23 06:26:08;;;;;;;12.63;6.13;;;;;;;10.12;73.00;99095.44;5074017;28;20056;-92
2022/09/23 06:28:39;;;;;;;10.85;6.57;;;;;;;10.26;72.78;99108.44;5073770;28;20498;-93
2022/09/23 06:31:07;;;;;;;15.02;7.85;;;;;;;10.21;72.87;99078.41;5074716;28;20100;-92
2022/09/23 06:33:34;;;;;;;16.88;8.43;;;;;;;10.51;72.02;99110.63;5075671;28;20143;-91
2022/09/23 06:36:03;;;;;;;17.13;8.57;;;;;;;10.53;71.53;99103.50;5074716;28;20295;-91
2022/09/23 06:38:29;;;;;;;17.38;8.80;;;;;;;10.50;70.60;99069.88;5075248;28;20503;-93
2022/09/23 06:40:56;;;;;;;25.15;8.82;;;;;;;10.72;70.88;99088.88;5077904;28;20090;-91
2022/09/23 06:43:24;;;;;;;41.75;9.70;;;;;;;10.81;70.45;99086.00;5078300;28;20114;-93
2022/09/23 06:45:51;;;;;;;21.08;8.25;;;;;;;11.01;69.72;99095.31;5077514;28;20052;-92
2022/09/23 06:48:17;;;;;;;27.67;9.48;;;;;;;11.07;69.32;99085.38;5077488;28;20494;-92
2022/09/23 06:50:43;;;;;;;25.77;8.98;;;;;;;11.24;69.33;99092.09;5077836;28;20098;-92
2022/09/23 06:53:11;;;;;;;17.17;8.30;;;;;;;11.32;68.45;99090.13;5077366;28;20570;-93
2022/09/23 06:55:37;;;;;;;21.90;8.90;;;;;;;11.41;69.15;99099.69;5077555;28;20040;-93
2022/09/23 06:58:03;;;;;;;19.77;7.85;;;;;;;11.33;68.51;99061.72;5077532;28;20037;-92
2022/09/23 07:00:29;;;;;;;14.45;7.40;;;;;;;11.69;68.40;99087.38;5077356;28;20044;-95
2022/09/23 07:03:04;;;;;;;14.77;7.22;;;;;;;11.85;67.52;99086.97;5077622;28;20044;-91
2022/09/23 07:12:25;;;;;;;12.32;6.32;;;;;;;12.37;65.21;99055.34;5016103;28;20037;-93
2022/09/23 07:14:57;;;;;;;11.65;5.72;;;;;;;12.57;65.18;99060.06;5015480;28;20187;-93
2022/09/23 07:18:04;;;;;;;11.70;5.90;;;;;;;13.05;64.46;99097.66;5015953;28;20042;-95
2022/09/23 07:20:41;;;;;;;12.98;6.57;;;;;;;13.08;63.22;99056.69;5015898;28;20046;-94
2022/09/23 07:23:35;;;;;;;11.00;5.35;;;;;;;13.29;62.57;99042.66;5017036;28;20096;-93
2022/09/23 07:26:21;;;;;;;9.48;5.00;;;;;;;13.52;60.93;99054.34;5015296;28;20041;-91
2022/09/23 07:29:04;;;;;;;8.75;4.35;;;;;;;14.12;58.42;99085.16;5016211;28;20077;-94
2022/09/23 07:32:11;;;;;;;8.88;4.18;;;;;;;14.35;57.55;99078.09;5015614;28;20038;-93
2022/09/23 07:34:53;;;;;;;9.90;4.40;;;;;;;14.18;56.81;99041.25;5005421;28;20034;-92
2022/09/23 07:37:52;;;;;;;11.13;4.72;;;;;;;14.57;56.65;99059.44;5017293;28;20053;-92
2022/09/23 07:40:40;;;;;;;7.68;4.30;;;;;;;14.71;55.55;99040.19;5072165;28;20045;-95
2022/09/23 07:43:19;;;;;;;12.85;4.65;;;;;;;14.75;54.83;99050.69;5078347;28;20534;-94
2022/09/23 07:46:11;;;;;;;8.85;4.32;;;;;;;14.61;54.91;99049.50;5083635;28;20041;-93
2022/09/23 07:48:49;;;;;;;8.13;4.45;;;;;;;14.82;55.11;99045.09;5080279;28;20043;-94
2022/09/23 07:51:29;;;;;;;9.20;4.15;;;;;;;15.02;54.83;99046.97;5080409;28;20052;-94
2022/09/23 07:54:28;;;;;;;8.15;4.07;;;;;;;15.28;54.78;99070.88;5076640;28;20506;-94
2022/09/23 07:57:04;;;;;;;7.40;4.38;;;;;;;14.98;53.94;99052.47;5059894;28;20052;-93
2022/09/23 07:59:48;;;;;;;7.20;4.35;;;;;;;15.24;53.43;99052.31;5078658;28;20040;-93
2022/09/23 08:02:18;;;;;;;7.95;4.10;;;;;;;15.23;53.31;99059.50;5081626;28;20041;-94
2022/09/23 08:04:45;;;;;;;6.82;3.80;;;;;;;15.47;53.33;99070.13;5079840;28;20374;-95
2022/09/23 08:07:12;;;;;;;6.53;3.72;;;;;;;15.76;53.26;99074.25;5077912;28;20056;-94
2022/09/23 08:09:45;;;;;;;8.23;3.67;;;;;;;15.88;51.71;99059.47;5076964;28;20551;-94
2022/09/23 08:12:21;;;;;;;10.43;4.55;;;;;;;15.87;52.12;99055.00;5078455;28;20413;-94
2022/09/23 08:14:47;;;;;;;7.22;4.13;;;;;;;16.03;50.92;99069.50;5076491;28;20143;-93
2022/09/23 08:17:18;;;;;;;11.85;4.32;;;;;;;15.99;51.53;99054.47;5078335;28;20071;-93
2022/09/23 08:19:47;;;;;;;6.93;3.80;;;;;;;15.79;51.47;99052.69;5080847;28;20382;-93
2022/09/23 08:22:23;;;;;;;8.10;4.13;;;;;;;15.89;51.59;99061.19;5081870;28;20501;-95
2022/09/23 08:24:55;;;;;;;6.90;3.60;;;;;;;16.33;50.71;99077.09;5077816;28;20060;-94
2022/09/23 08:27:23;;;;;;;5.82;3.58;;;;;;;16.01;50.84;99058.84;5082098;28;20059;-93
2022/09/23 08:29:49;;;;;;;8.60;3.60;;;;;;;16.31;50.90;99074.50;5100177;28;20062;-93
2022/09/23 08:32:19;;;;;;;7.88;3.40;;;;;;;16.32;50.76;99070.00;5088936;28;20040;-94
2022/09/23 08:34:51;;;;;;;9.00;4.10;;;;;;;16.60;49.71;99080.31;5079490;28;20127;-92
2022/09/23 08:37:17;;;;;;;6.95;3.30;;;;;;;16.52;50.37;99064.56;5080184;28;20402;-91
2022/09/23 08:39:44;;;;;;;7.22;3.60;;;;;;;16.63;50.19;99051.53;5083553;28;20048;-94
2022/09/23 08:42:32;;;;;;;7.85;3.50;;;;;;;16.80;49.86;99065.97;5077453;28;20040;-94
2022/09/23 08:45:06;;;;;;;5.78;3.80;;;;;;;17.23;48.65;99080.88;5076345;28;20083;-94
2022/09/23 08:47:48;;;;;;;8.85;3.95;;;;;;;17.23;47.70;99072.81;5077618;28;20044;-94
2022/09/23 08:50:20;;;;;;;8.93;4.60;;;;;;;17.23;48.43;99075.50;5078881;28;20045;-95
2022/09/23 08:52:59;;;;;;;6.80;3.70;;;;;;;16.93;48.70;99056.38;5076258;28;20109;-95
2022/09/23 08:55:33;;;;;;;9.52;5.13;;;;;;;17.10;49.61;99079.75;5078256;28;20040;-93
2022/09/23 08:58:20;;;;;;;13.77;6.40;;;;;;;17.44;48.08;99056.59;5075754;28;20036;-95
2022/09/23 09:01:03;;;;;;;11.38;5.97;;;;;;;17.46;47.53;99060.06;5075554;28;20098;-93
2022/09/23 09:03:53;;;;;;;8.95;3.97;;;;;;;17.48;47.48;99065.34;5077447;28;20041;-94
2022/09/23 09:06:52;;;;;;;11.98;4.57;;;;;;;17.64;48.11;99047.50;5079522;28;20033;-92
2022/09/23 09:09:26;;;;;;;8.32;3.88;;;;;;;17.45;47.42;99037.66;5077744;28;20131;-93
2022/09/23 09:12:18;;;;;;;6.07;3.78;;;;;;;17.71;47.70;99054.28;5058318;28;20071;-94
2022/09/23 09:15:00;;;;;;;6.63;3.50;;;;;;;17.56;47.10;99028.19;5079222;28;20048;-95
2022/09/23 09:17:33;;;;;;;7.28;3.38;;;;;;;17.79;46.02;99054.78;5078242;28;20074;-94
2022/09/23 09:20:06;;;;;;;5.97;3.70;;;;;;;17.95;46.69;99038.72;5077332;28;20140;-93
2022/09/23 09:22:56;;;;;;;8.40;4.03;;;;;;;17.66;46.34;99040.22;5076518;28;20046;-94
2022/09/23 09:25:32;;;;;;;8.70;3.60;;;;;;;18.06;46.74;99051.59;5076047;28;20045;-95
2022/09/23 09:27:59;;;;;;;9.00;4.72;;;;;;;18.28;45.39;99067.47;5077079;28;20044;-94
2022/09/23 09:30:27;;;;;;;5.88;3.50;;;;;;;18.57;45.33;99056.97;5076883;28;20037;-94
2022/09/23 09:33:02;;;;;;;7.45;3.45;;;;;;;18.58;43.31;99026.34;5079817;28;20055;-95
2022/09/23 09:36:03;;;;;;;5.78;2.90;;;;;;;18.87;42.20;99049.00;5078483;28;20048;-93
2022/09/23 09:38:35;;;;;;;5.03;2.85;;;;;;;18.37;43.43;99028.44;5074068;28;20056;-93
2022/09/23 09:41:14;;;;;;;7.13;3.10;;;;;;;18.59;42.38;99020.03;5079913;28;20040;-95
2022/09/23 09:43:59;;;;;;;4.18;2.90;;;;;;;18.79;42.58;99060.22;5079315;28;20064;-95
2022/09/23 09:46:49;;;;;;;4.20;2.55;;;;;;;18.66;41.42;99046.53;5075703;28;20036;-94
2022/09/23 09:49:25;;;;;;;5.63;2.90;;;;;;;18.66;42.80;99033.06;5075756;28;20048;-93
2022/09/23 09:52:11;;;;;;;5.55;3.00;;;;;;;18.49;41.61;99054.66;5075852;28;20131;-92
2022/09/23 09:54:43;;;;;;;5.10;2.80;;;;;;;18.60;43.49;99024.44;5074430;28;20128;-93
2022/09/23 09:57:18;;;;;;;4.40;2.70;;;;;;;19.06;41.71;99051.50;5075843;28;20076;-94
2022/09/23 09:59:44;;;;;;;4.97;3.10;;;;;;;18.52;42.35;99011.44;5061728;28;20109;-93
2022/09/23 10:02:23;;;;;;;4.35;2.92;;;;;;;18.88;40.93;99031.88;5077108;28;20048;-94
2022/09/23 10:04:59;;;;;;;4.50;2.75;;;;;;;18.65;40.76;99011.56;5074480;28;20040;-93
2022/09/23 10:07:32;;;;;;;3.83;2.67;;;;;;;18.41;40.43;99011.13;5076462;28;20513;-94
2022/09/23 10:10:16;;;;;;;3.97;2.55;;;;;;;18.77;40.10;99037.84;5075040;28;20388;-92
2022/09/23 10:12:45;;;;;;;4.75;2.90;;;;;;;18.82;41.55;99025.03;5076562;28;20036;-94
2022/09/23 10:15:46;;;;;;;3.75;2.67;;;;;;;18.85;41.01;99038.31;5078921;28;20044;-95
2022/09/23 10:18:20;;;;;;;4.93;2.72;;;;;;;18.69;41.13;99034.69;5083844;28;20048;-93
2022/09/23 10:20:47;;;;;;;9.93;2.90;;;;;;;18.81;42.24;99006.25;5078151;28;20070;-93
2022/09/23 10:23:26;;;;;;;3.95;2.40;;;;;;;19.10;37.88;99009.94;5079542;28;20513;-93
2022/09/23 10:25:59;;;;;;;4.25;2.53;;;;;;;19.55;37.19;99042.41;5079332;28;20036;-92
2022/09/23 10:28:31;;;;;;;4.97;2.40;;;;;;;19.33;36.60;99027.47;5080227;28;20046;-89
2022/09/23 10:31:14;;;;;;;3.60;2.30;;;;;;;19.43;35.79;99015.19;5079219;28;20048;-94
2022/09/23 10:33:48;;;;;;;3.30;2.17;;;;;;;19.15;37.40;99026.75;5081523;28;20368;-92
2022/09/23 10:36:17;;;;;;;6.10;2.60;;;;;;;19.13;38.41;99025.97;5080345;28;20056;-92
2022/09/23 10:38:43;;;;;;;3.55;2.30;;;;;;;19.13;38.30;99044.81;5081582;28;20049;-92
2022/09/23 10:48:29;;;;;;;5.03;2.60;;;;;;;19.01;38.01;99019.44;5072200;27;20501;-94
2022/09/23 10:51:07;;;;;;;8.98;2.42;;;;;;;19.15;37.68;99004.28;5070813;28;20051;-92
2022/09/23 10:54:01;;;;;;;;;;;;;;;;;;;;;
2022/09/23 10:57:36;;;;;;;4.85;2.20;;;;;;;19.38;36.09;99033.47;5071567;28;20040;-95
2022/09/23 11:00:25;;;;;;;3.70;2.40;;;;;;;19.18;35.88;99007.69;5068701;28;20071;-94
2022/09/23 11:03:31;;;;;;;2.92;2.05;;;;;;;19.61;35.64;99048.28;5072360;28;20040;-95
2022/09/23 11:06:52;;;;;;;5.60;2.33;;;;;;;19.62;35.28;99041.91;5080173;27;20119;-95
2022/09/23 11:09:39;;;;;;;3.80;2.63;;;;;;;19.00;35.66;98993.44;5062931;28;20045;-95
2022/09/23 11:12:31;;;;;;;4.03;2.20;;;;;;;19.44;35.38;99013.38;5070537;28;20079;-94
2022/09/23 11:15:26;;;;;;;3.72;2.45;;;;;;;19.37;35.61;98991.28;5052031;28;20068;-94
2022/09/23 11:18:15;;;;;;;4.03;2.30;;;;;;;19.69;36.00;99026.22;5049906;28;20054;-92
2022/09/23 11:20:57;;;;;;;3.55;2.20;;;;;;;19.61;35.89;99005.13;5066656;28;20407;-92
2022/09/23 11:24:04;;;;;;;4.50;2.25;;;;;;;19.87;35.09;99013.50;5073625;27;20041;-94
2022/09/23 11:27:28;;;;;;;4.20;2.15;;;;;;;19.66;34.91;98975.16;5071317;28;20051;-94
2022/09/23 11:30:19;;;;;;;3.25;2.10;;;;;;;19.63;33.98;98980.75;5037886;28;20144;-95
2022/09/23 11:33:12;;;;;;;4.43;2.00;;;;;;;19.59;33.55;98984.59;5070850;28;20550;-94
2022/09/23 11:35:47;;;;;;;3.72;2.10;;;;;;;19.37;35.19;98974.25;5049487;28;20520;-93
2022/09/23 11:38:48;;;;;;;3.65;2.30;;;;;;;19.52;34.51;98985.91;5050900;28;20387;-94
2022/09/23 11:41:21;;;;;;;4.65;2.50;;;;;;;19.34;34.89;98983.38;5055685;28;20047;-92
2022/09/23 11:43:57;;;;;;;3.63;2.05;;;;;;;19.60;34.61;99007.91;5068039;28;20041;-92
2022/09/23 11:46:39;;;;;;;4.47;2.13;;;;;;;19.43;34.05;98963.97;5096124;27;20092;-94
2022/09/23 11:49:14;;;;;;;4.32;2.25;;;;;;;19.39;35.35;98969.63;5155251;27;20555;-93
2022/09/23 11:51:48;;;;;;;2.95;2.03;;;;;;;19.61;36.26;98977.28;5153564;27;20035;-92
2022/09/23 11:54:20;;;;;;;4.32;1.92;;;;;;;19.58;34.27;98961.28;5154893;27;20426;-93
2022/09/23 11:56:52;;;;;;;3.40;2.20;;;;;;;19.39;33.52;98965.09;5155484;27;20039;-94
2022/09/23 11:59:30;;;;;;;2.50;1.83;;;;;;;19.52;34.03;98956.25;5138753;27;20043;-94
2022/09/23 12:02:05;;;;;;;3.35;2.13;;;;;;;19.62;36.13;98947.50;5128223;27;20032;-92
2022/09/23 12:04:41;;;;;;;3.20;2.10;;;;;;;19.82;35.05;98943.63;5142296;27;20047;-95
2022/09/23 12:07:19;;;;;;;3.53;1.92;;;;;;;20.13;34.60;98976.78;5140530;27;20088;-91
2022/09/23 12:09:56;;;;;;;2.50;2.00;;;;;;;20.17;35.49;98970.25;5140573;27;20469;-93
2022/09/23 12:12:36;;;;;;;3.70;2.15;;;;;;;20.08;33.61;98952.78;5140114;27;20035;-95
2022/09/23 12:15:09;;;;;;;3.25;2.10;;;;;;;20.12;33.24;98958.84;5140344;27;20126;-92
2022/09/23 12:18:01;;;;;;;2.70;1.85;;;;;;;20.05;33.64;98946.69;5139354;27;20074;-94
2022/09/23 12:20:47;;;;;;;4.25;2.13;;;;;;;20.04;34.15;98942.28;5139734;27;20047;-94
2022/09/23 12:23:38;;;;;;;11.95;2.55;;;;;;;20.07;33.91;98937.53;5142285;27;20039;-94
2022/09/23 12:26:18;;;;;;;3.20;1.90;;;;;;;20.12;32.57;98931.84;5135509;27;20072;-96